Time;durP1;ratioP1;P1;durP2;ratioP2;P2;SDS_P1;SDS_P2;PMS_P1;PMS_P2;Temp;Humidity;BMP_temperature;BMP_pressure;BME280_temperature;BME280_humidity;BME280_pressure;Samples;Min_cycle;Max_cycle;Signal;HPM_P1;HPM_P2
2022/12/17 13:06:37;;;;;;;8.52;1.60;;;15.60;99.90;;;;;;5116578;28;20183;-78
2022/12/17 13:09:24;;;;;;;6.28;1.77;;;15.50;99.90;;;;;;5116329;28;20232;-78
2022/12/17 13:12:18;;;;;;;6.75;1.40;;;15.50;99.90;;;;;;5114745;28;20198;-78
2022/12/17 13:14:56;;;;;;;8.13;1.67;;;15.50;99.90;;;;;;5115222;28;20204;-79
2022/12/17 13:17:34;;;;;;;7.30;1.70;;;15.50;99.90;;;;;;5116055;28;20183;-79
2022/12/17 13:20:21;;;;;;;7.85;1.20;;;15.50;99.90;;;;;;5112818;28;20184;-77
2022/12/17 13:23:06;;;;;;;7.18;1.52;;;15.50;99.90;;;;;;5113353;28;20299;-79
2022/12/17 13:25:39;;;;;;;11.15;1.85;;;15.40;99.90;;;;;;5112012;28;20195;-79
2022/12/17 13:28:29;;;;;;;7.22;1.92;;;15.40;99.90;;;;;;5114969;28;20211;-77
2022/12/17 13:31:07;;;;;;;11.23;1.80;;;15.40;99.90;;;;;;5112273;28;20184;-78
2022/12/17 13:33:47;;;;;;;8.63;2.00;;;15.30;99.90;;;;;;5107601;27;20578;-82
2022/12/17 13:36:25;;;;;;;8.70;1.60;;;15.20;99.90;;;;;;5108305;28;20223;-85
2022/12/17 13:39:03;;;;;;;5.90;1.10;;;15.20;99.90;;;;;;5107985;28;20199;-82
2022/12/17 13:41:37;;;;;;;4.05;1.00;;;15.20;99.90;;;;;;5115463;28;20201;-82
2022/12/17 13:44:22;;;;;;;3.65;0.80;;;15.10;99.90;;;;;;5109550;28;20643;-80
2022/12/17 13:46:54;;;;;;;5.20;1.15;;;15.00;99.90;;;;;;5107449;28;20188;-79
2022/12/17 13:49:26;;;;;;;4.63;0.80;;;15.00;99.90;;;;;;5115039;28;20217;-79
2022/12/17 13:52:07;;;;;;;2.97;0.70;;;15.00;99.90;;;;;;5102948;28;20195;-79
2022/12/17 13:54:38;;;;;;;3.40;0.77;;;15.10;99.90;;;;;;5114759;28;20276;-79
2022/12/17 13:57:17;;;;;;;6.00;0.80;;;15.10;99.90;;;;;;5115092;28;20194;-79
2022/12/17 13:59:53;;;;;;;2.75;0.60;;;15.00;99.90;;;;;;5114908;28;20279;-79
2022/12/17 14:02:31;;;;;;;7.63;0.70;;;15.00;99.90;;;;;;5115142;28;20195;-79
2022/12/17 14:05:03;;;;;;;3.42;0.70;;;15.00;99.90;;;;;;5111119;28;20191;-79
2022/12/17 14:07:39;;;;;;;2.40;0.73;;;15.00;99.90;;;;;;5104421;28;20192;-79
2022/12/17 14:10:17;;;;;;;5.72;0.80;;;15.00;99.90;;;;;;5115039;28;20270;-80
2022/12/17 14:12:49;;;;;;;6.25;0.80;;;15.00;99.90;;;;;;5098306;28;20581;-79
2022/12/17 14:15:27;;;;;;;3.72;0.82;;;15.00;99.90;;;;;;5114714;28;20192;-81
2022/12/17 14:18:00;;;;;;;7.32;1.13;;;15.00;99.90;;;;;;5114985;28;20197;-79
2022/12/17 14:20:33;;;;;;;4.68;0.80;;;15.00;99.90;;;;;;5114799;28;20210;-79
2022/12/17 14:23:07;;;;;;;9.32;1.08;;;15.00;99.90;;;;;;5114956;28;20192;-79
2022/12/17 14:25:39;;;;;;;5.22;1.25;;;15.00;99.90;;;;;;5112661;28;20192;-79
2022/12/17 14:28:24;;;;;;;5.28;1.48;;;15.00;99.90;;;;;;5114635;28;20642;-78
2022/12/17 14:31:05;;;;;;;5.40;0.90;;;15.00;99.90;;;;;;5114687;27;20646;-76
2022/12/17 14:33:37;;;;;;;7.43;1.00;;;15.00;99.90;;;;;;5113629;28;20207;-78
2022/12/17 14:36:10;;;;;;;7.72;1.17;;;15.00;99.90;;;;;;5114388;27;20231;-77
2022/12/17 14:38:57;;;;;;;3.33;0.80;;;15.00;99.90;;;;;;5110603;27;20191;-77
2022/12/17 14:44:23;;;;;;;4.22;0.70;;;14.90;99.90;;;;;;5109496;28;20661;-79
2022/12/17 14:46:56;;;;;;;2.33;0.60;;;14.90;99.90;;;;;;5112940;28;20245;-78
2022/12/17 14:49:27;;;;;;;2.72;0.68;;;14.90;99.90;;;;;;5113922;28;20210;-78
2022/12/17 14:51:58;;;;;;;2.88;0.50;;;14.90;99.90;;;;;;5113704;28;20276;-78
2022/12/17 14:54:31;;;;;;;2.40;0.60;;;14.90;99.90;;;;;;5113789;28;20264;-78
2022/12/17 14:57:07;;;;;;;5.05;0.60;;;14.90;99.90;;;;;;5111663;28;20187;-78
2022/12/17 14:59:42;;;;;;;4.78;0.60;;;14.90;99.90;;;;;;5112225;28;20191;-77
2022/12/17 15:02:22;;;;;;;2.65;0.43;;;14.90;99.90;;;;;;5114008;28;20641;-78
2022/12/17 15:04:54;;;;;;;2.28;0.52;;;14.90;99.90;;;;;;5113514;28;20282;-77
2022/12/17 15:07:29;;;;;;;3.10;0.57;;;14.80;99.90;;;;;;5101817;28;20192;-78
2022/12/17 15:10:10;;;;;;;4.45;0.60;;;14.80;99.90;;;;;;5113345;28;20187;-78
2022/12/17 15:12:42;;;;;;;2.78;0.60;;;14.80;99.90;;;;;;5108569;28;20218;-78
2022/12/17 15:15:17;;;;;;;3.28;0.65;;;14.80;99.90;;;;;;5105228;28;20575;-78
2022/12/17 15:17:48;;;;;;;2.85;0.70;;;14.70;99.90;;;;;;5114078;28;20278;-78
2022/12/17 15:20:21;;;;;;;1.67;0.50;;;14.70;99.90;;;;;;5113792;28;20191;-77
2022/12/17 15:22:51;;;;;;;5.10;0.75;;;14.70;99.90;;;;;;5113514;28;20289;-77
2022/12/17 15:25:22;;;;;;;2.40;0.50;;;14.70;99.90;;;;;;5113249;28;20194;-77
2022/12/17 15:27:54;;;;;;;2.72;0.50;;;14.70;99.90;;;;;;5113336;28;20198;-78
2022/12/17 15:30:26;;;;;;;1.50;0.50;;;14.70;99.90;;;;;;5113518;28;20631;-77
2022/12/17 15:32:57;;;;;;;2.42;0.50;;;14.70;99.90;;;;;;5113586;28;20197;-77
2022/12/17 15:35:28;;;;;;;2.17;0.88;;;14.60;99.90;;;;;;5114529;28;20210;-78
2022/12/17 15:37:59;;;;;;;1.70;0.52;;;14.60;99.90;;;;;;5120170;27;20205;-78
2022/12/17 15:40:30;;;;;;;5.60;0.88;;;14.60;99.90;;;;;;5119900;27;20197;-78
2022/12/17 15:43:11;;;;;;;6.53;0.80;;;14.70;99.90;;;;;;5120020;27;20210;-78
2022/12/17 15:45:45;;;;;;;2.20;0.50;;;14.70;99.90;;;;;;5118159;27;20293;-78
2022/12/17 15:48:17;;;;;;;1.50;0.60;;;14.70;99.90;;;;;;5134702;27;20739;-78
2022/12/17 15:50:49;;;;;;;2.70;0.60;;;14.70;99.90;;;;;;5139454;27;20205;-79
2022/12/17 15:53:19;;;;;;;5.78;0.60;;;14.70;99.90;;;;;;5123714;27;20201;-78
2022/12/17 15:55:50;;;;;;;2.50;0.55;;;14.70;99.90;;;;;;5131503;27;20681;-78
2022/12/17 15:58:21;;;;;;;1.95;0.50;;;14.70;99.90;;;;;;5132503;27;20191;-79
2022/12/17 16:00:53;;;;;;;4.22;0.70;;;14.70;99.90;;;;;;5120074;27;20217;-79
2022/12/17 16:03:24;;;;;;;5.90;0.82;;;14.80;99.90;;;;;;5130383;27;20198;-78
2022/12/17 16:05:55;;;;;;;2.42;0.90;;;14.80;99.90;;;;;;5130998;27;20620;-78
2022/12/17 16:08:26;;;;;;;2.65;0.70;;;14.90;99.90;;;;;;5129298;27;20198;-79
2022/12/17 16:10:57;;;;;;;4.30;0.80;;;14.90;99.90;;;;;;5135331;27;20516;-79
2022/12/17 16:13:27;;;;;;;4.25;0.90;;;14.90;99.90;;;;;;5135903;27;20286;-78
2022/12/17 16:16:01;;;;;;;3.72;0.63;;;14.90;99.90;;;;;;5129843;27;20227;-78
2022/12/17 16:18:32;;;;;;;3.08;0.60;;;15.00;99.90;;;;;;5123727;27;20201;-78
2022/12/17 16:21:05;;;;;;;2.53;0.60;;;15.00;99.90;;;;;;5123629;27;20202;-78
2022/12/17 16:23:36;;;;;;;2.08;0.60;;;15.00;99.90;;;;;;5132220;27;20241;-78
2022/12/17 16:26:09;;;;;;;3.42;0.73;;;15.00;99.90;;;;;;5130200;27;20650;-78
2022/12/17 16:28:40;;;;;;;4.82;0.70;;;15.00;99.90;;;;;;5124304;27;20198;-78
2022/12/17 16:31:16;;;;;;;3.85;0.90;;;14.90;99.90;;;;;;5120354;27;20202;-78
2022/12/17 16:33:47;;;;;;;2.33;0.80;;;14.90;99.90;;;;;;5140326;27;20271;-79
2022/12/17 16:36:19;;;;;;;5.18;0.95;;;14.90;99.90;;;;;;5134586;27;20229;-78
2022/12/17 16:38:51;;;;;;;6.32;1.00;;;14.90;99.90;;;;;;5131405;27;20205;-78
2022/12/17 16:41:22;;;;;;;6.18;1.20;;;14.90;99.90;;;;;;5122522;27;20532;-79
2022/12/17 16:43:53;;;;;;;4.13;1.13;;;14.80;99.90;;;;;;5125363;27;20279;-79
2022/12/17 16:46:31;;;;;;;4.35;0.90;;;14.80;99.90;;;;;;5119785;28;20195;-79
2022/12/17 16:49:05;;;;;;;6.25;1.20;;;14.80;99.90;;;;;;5115154;28;20202;-80
2022/12/17 16:51:36;;;;;;;2.28;0.70;;;14.80;99.90;;;;;;5116387;28;20187;-80
2022/12/17 16:54:08;;;;;;;3.22;0.68;;;14.80;99.90;;;;;;5116262;27;20215;-80
2022/12/17 16:56:39;;;;;;;1.92;0.73;;;14.80;99.90;;;;;;5115571;28;20642;-79
2022/12/17 16:59:10;;;;;;;3.15;0.70;;;14.80;99.90;;;;;;5102301;28;20192;-79
2022/12/17 17:01:45;;;;;;;2.08;0.70;;;14.70;99.90;;;;;;5096869;28;20193;-80
2022/12/17 17:04:17;;;;;;;3.10;0.65;;;14.70;99.90;;;;;;5108850;28;20187;-79
2022/12/17 17:06:49;;;;;;;2.35;0.70;;;14.70;99.90;;;;;;5114041;28;20191;-80
2022/12/17 17:09:21;;;;;;;5.32;0.75;;;14.70;99.90;;;;;;5105479;28;20190;-80
2022/12/17 17:11:52;;;;;;;3.85;0.60;;;14.70;99.90;;;;;;5116344;28;20571;-81
2022/12/17 17:14:23;;;;;;;3.90;0.63;;;14.70;99.90;;;;;;5116081;28;20633;-80
2022/12/17 17:16:55;;;;;;;2.05;0.57;;;14.60;99.90;;;;;;5115746;28;20183;-81
2022/12/17 17:19:26;;;;;;;3.72;0.63;;;14.60;99.90;;;;;;5115802;28;20188;-81
2022/12/17 17:21:57;;;;;;;2.88;0.88;;;14.60;99.90;;;;;;5115900;28;20203;-81
2022/12/17 17:24:28;;;;;;;3.97;0.70;;;14.60;99.90;;;;;;5115675;28;20194;-81
2022/12/17 17:26:59;;;;;;;4.15;0.68;;;14.50;99.90;;;;;;5115867;28;20192;-80
2022/12/17 17:29:29;;;;;;;3.60;0.52;;;14.50;99.90;;;;;;5115132;28;20237;-80
2022/12/17 17:32:02;;;;;;;2.47;0.55;;;14.60;99.90;;;;;;5103797;28;20188;-80
2022/12/17 17:34:33;;;;;;;2.90;0.75;;;14.50;99.90;;;;;;5094951;28;20222;-80
2022/12/17 17:37:04;;;;;;;2.63;0.50;;;14.60;99.90;;;;;;5115317;28;20233;-78
2022/12/17 17:39:34;;;;;;;1.88;0.57;;;14.60;99.90;;;;;;5115483;28;20658;-79
2022/12/17 17:42:05;;;;;;;2.10;0.55;;;14.60;99.90;;;;;;5112711;28;20271;-79
2022/12/17 17:44:37;;;;;;;4.80;0.70;;;14.60;99.90;;;;;;5114753;28;20195;-79
2022/12/17 17:47:09;;;;;;;2.88;0.70;;;14.60;99.90;;;;;;5113159;28;20195;-80
2022/12/17 17:49:40;;;;;;;1.67;0.80;;;14.50;99.90;;;;;;5114576;28;20585;-79
2022/12/17 17:52:11;;;;;;;3.38;0.70;;;14.50;99.90;;;;;;5110574;28;20200;-78
2022/12/17 17:54:42;;;;;;;1.50;0.60;;;14.40;99.90;;;;;;5120471;27;20711;-79
2022/12/17 17:57:13;;;;;;;1.80;0.60;;;14.40;99.90;;;;;;5131967;27;20203;-79
2022/12/17 17:59:43;;;;;;;2.83;0.60;;;14.40;99.90;;;;;;5126687;27;20195;-76
2022/12/17 18:02:16;;;;;;;2.67;0.75;;;14.40;99.90;;;;;;5114447;28;20547;-77
2022/12/17 18:04:47;;;;;;;1.60;0.50;;;14.40;99.90;;;;;;5114889;28;20215;-77
2022/12/17 18:07:18;;;;;;;1.77;0.60;;;14.30;99.90;;;;;;5113607;28;20205;-77
2022/12/17 18:09:48;;;;;;;2.15;0.65;;;14.30;99.90;;;;;;5108281;27;20223;-77
2022/12/17 18:15:06;;;;;;;2.20;0.40;;;14.20;99.90;;;;;;5114424;28;20254;-77
2022/12/17 18:17:41;;;;;;;2.75;0.65;;;14.10;99.90;;;;;;5114497;28;20202;-77
2022/12/17 18:20:13;;;;;;;1.30;0.50;;;14.10;99.90;;;;;;5114765;28;20191;-77
2022/12/17 18:22:44;;;;;;;1.13;0.40;;;14.00;99.90;;;;;;5096512;28;20184;-77
2022/12/17 18:25:15;;;;;;;1.42;0.50;;;14.00;99.90;;;;;;5094201;28;20220;-77
2022/12/17 18:27:46;;;;;;;0.73;0.35;;;14.00;99.90;;;;;;5094248;28;20195;-77
2022/12/17 18:30:17;;;;;;;1.27;0.43;;;14.00;99.90;;;;;;5100861;28;20210;-77
2022/12/17 18:32:49;;;;;;;1.60;0.40;;;14.00;99.90;;;;;;5113743;28;20284;-77
2022/12/17 18:35:20;;;;;;;2.40;0.70;;;14.00;99.90;;;;;;5093957;28;20229;-77
2022/12/17 18:37:51;;;;;;;1.40;0.60;;;14.00;99.90;;;;;;5108703;28;20205;-77
2022/12/17 18:40:22;;;;;;;1.02;0.40;;;14.00;99.90;;;;;;5114230;28;20190;-77
2022/12/17 18:45:51;;;;;;;1.70;0.57;;;14.00;99.90;;;;;;5051544;28;20243;-77
2022/12/17 18:48:23;;;;;;;2.20;0.60;;;13.90;99.90;;;;;;5100309;28;20210;-77
2022/12/17 18:50:54;;;;;;;2.15;0.60;;;13.90;99.90;;;;;;5114064;28;20195;-77
2022/12/17 18:53:26;;;;;;;5.30;0.70;;;13.90;99.90;;;;;;5113338;28;20192;-77
2022/12/17 18:55:56;;;;;;;2.28;0.60;;;13.90;99.90;;;;;;5113812;28;20199;-77
2022/12/17 18:58:27;;;;;;;2.03;0.77;;;13.90;99.90;;;;;;5114016;28;20184;-77
2022/12/17 19:00:58;;;;;;;1.10;0.60;;;13.90;99.90;;;;;;5113764;28;20192;-77
2022/12/17 19:03:30;;;;;;;1.77;0.80;;;13.90;99.90;;;;;;5112527;28;20210;-77
2022/12/17 19:06:06;;;;;;;1.80;0.73;;;13.90;99.90;;;;;;5093555;28;20212;-76
2022/12/17 19:08:39;;;;;;;1.65;0.70;;;14.00;99.90;;;;;;5098795;28;20195;-76
2022/12/17 19:11:11;;;;;;;2.70;0.70;;;14.00;99.90;;;;;;5111186;27;20221;-76
2022/12/17 19:13:42;;;;;;;1.80;0.70;;;13.90;99.90;;;;;;5114606;27;20205;-76
2022/12/17 19:16:14;;;;;;;1.60;0.60;;;13.90;99.90;;;;;;5116201;27;20200;-75
2022/12/17 19:18:51;;;;;;;1.75;0.55;;;13.90;99.90;;;;;;5117485;27;20202;-76
2022/12/17 19:21:22;;;;;;;1.63;0.70;;;13.90;99.90;;;;;;5108197;28;20187;-76
2022/12/17 19:23:57;;;;;;;2.22;0.60;;;13.90;99.90;;;;;;5113770;28;20197;-76
2022/12/17 19:26:28;;;;;;;1.27;0.40;;;13.90;99.90;;;;;;5113439;28;20206;-76
2022/12/17 19:29:00;;;;;;;3.30;0.75;;;14.00;99.90;;;;;;5113614;28;20209;-77
2022/12/17 19:31:32;;;;;;;1.17;0.60;;;14.00;99.90;;;;;;5113479;28;20187;-76
2022/12/17 19:34:11;;;;;;;1.05;0.50;;;14.00;99.90;;;;;;5113319;28;20187;-76
2022/12/17 19:36:43;;;;;;;4.15;0.73;;;14.10;99.90;;;;;;5113128;28;20238;-75
2022/12/17 19:39:15;;;;;;;1.33;0.57;;;14.10;99.90;;;;;;5113081;28;20199;-74
2022/12/17 19:41:46;;;;;;;2.63;0.60;;;14.10;99.90;;;;;;5113191;28;20193;-75
2022/12/17 19:44:18;;;;;;;0.95;0.50;;;14.10;99.90;;;;;;5113339;28;20191;-75
2022/12/17 19:46:49;;;;;;;1.38;0.50;;;14.10;99.90;;;;;;5113244;28;20208;-75
2022/12/17 19:49:22;;;;;;;0.82;0.55;;;14.10;99.90;;;;;;5112842;28;20192;-77
2022/12/17 19:51:52;;;;;;;0.40;0.40;;;14.10;99.90;;;;;;5113547;28;20730;-77
2022/12/17 19:54:23;;;;;;;2.40;0.80;;;14.10;99.90;;;;;;5113224;28;20188;-77
2022/12/17 19:56:54;;;;;;;2.50;0.60;;;14.10;99.90;;;;;;5113129;28;20675;-77
2022/12/17 19:59:25;;;;;;;1.90;0.63;;;14.10;99.90;;;;;;5113283;28;20438;-77
2022/12/17 20:01:56;;;;;;;1.23;0.70;;;14.20;99.90;;;;;;5115765;28;20190;-76
2022/12/17 20:04:28;;;;;;;1.73;0.60;;;14.20;99.90;;;;;;5129894;27;20191;-78
2022/12/17 20:06:59;;;;;;;2.15;0.80;;;14.20;99.90;;;;;;5118930;27;20242;-77
2022/12/17 20:09:33;;;;;;;2.15;0.73;;;14.30;99.90;;;;;;5124634;28;20187;-77
2022/12/17 20:12:04;;;;;;;2.47;0.80;;;14.20;99.90;;;;;;5109096;28;20196;-77
2022/12/17 20:14:35;;;;;;;2.60;0.93;;;14.30;99.90;;;;;;5108785;28;20191;-77
2022/12/17 20:17:06;;;;;;;1.42;0.63;;;14.30;99.90;;;;;;5111607;28;20199;-77
2022/12/17 20:19:38;;;;;;;4.65;0.80;;;14.40;99.90;;;;;;5122237;28;20191;-77
2022/12/17 20:22:09;;;;;;;1.23;0.80;;;14.40;99.90;;;;;;5130599;27;20202;-79
2022/12/17 20:24:40;;;;;;;2.30;0.90;;;14.40;99.90;;;;;;5137408;27;20187;-79
2022/12/17 20:27:10;;;;;;;2.70;0.60;;;14.40;99.90;;;;;;5119622;27;20198;-79
2022/12/17 20:29:41;;;;;;;1.75;0.85;;;14.40;99.90;;;;;;5116421;28;20213;-79
2022/12/17 20:32:12;;;;;;;2.20;0.90;;;14.50;99.90;;;;;;5116842;28;20188;-79
2022/12/17 20:34:45;;;;;;;1.50;0.70;;;14.50;99.90;;;;;;5118379;27;20199;-79
2022/12/17 20:37:15;;;;;;;3.78;0.77;;;14.60;99.90;;;;;;5116498;27;20586;-79
2022/12/17 20:39:46;;;;;;;2.65;0.88;;;14.60;99.90;;;;;;5116378;27;20207;-78
2022/12/17 20:42:18;;;;;;;2.13;0.70;;;14.60;99.90;;;;;;5126991;27;20191;-79
2022/12/17 20:44:48;;;;;;;2.97;1.00;;;14.60;99.90;;;;;;5116105;28;20257;-79
2022/12/17 20:47:19;;;;;;;4.97;0.93;;;14.70;99.90;;;;;;5124405;27;20566;-78
2022/12/17 20:49:52;;;;;;;2.70;1.00;;;14.70;99.90;;;;;;5127989;27;20219;-79
2022/12/17 20:52:22;;;;;;;2.65;1.10;;;14.70;99.90;;;;;;5115614;27;20199;-80
2022/12/17 20:54:53;;;;;;;1.00;0.80;;;14.70;99.90;;;;;;5099754;28;20184;-80
2022/12/17 20:57:24;;;;;;;4.72;0.80;;;14.70;99.90;;;;;;5117447;27;20191;-81
2022/12/17 20:59:55;;;;;;;2.42;0.77;;;14.70;99.90;;;;;;5114843;27;20198;-81
2022/12/17 21:02:25;;;;;;;0.80;0.77;;;14.70;99.90;;;;;;5129783;27;20205;-78
2022/12/17 21:04:58;;;;;;;2.05;0.90;;;14.70;99.90;;;;;;5115266;27;20200;-79
2022/12/17 21:07:29;;;;;;;3.05;0.77;;;14.70;99.90;;;;;;5109511;27;20199;-79
2022/12/17 21:10:00;;;;;;;4.63;0.93;;;14.80;99.90;;;;;;5116973;27;20195;-78
2022/12/17 21:13:27;;;;;;;2.80;0.90;;;14.80;99.90;;;;;;5115053;27;20205;-78
2022/12/17 21:15:22;;;;;;;2.00;0.80;;;14.80;99.90;;;;;;5118348;27;20211;-79
2022/12/17 21:17:52;;;;;;;1.35;0.70;;;14.80;99.90;;;;;;5115992;27;20658;-79
2022/12/17 21:20:25;;;;;;;1.45;0.77;;;15.00;99.90;;;;;;5116599;27;20279;-78
2022/12/17 21:22:56;;;;;;;3.72;0.80;;;15.00;99.90;;;;;;5121018;27;20192;-80
2022/12/17 21:25:26;;;;;;;2.15;0.80;;;15.00;99.90;;;;;;5122470;27;20219;-79
2022/12/17 21:27:57;;;;;;;1.83;0.77;;;15.00;99.90;;;;;;5111786;27;20199;-79
2022/12/17 21:30:28;;;;;;;2.58;0.82;;;15.00;99.90;;;;;;5113496;27;20588;-78
2022/12/17 21:32:59;;;;;;;1.15;0.60;;;15.10;99.90;;;;;;5115428;27;20202;-80
2022/12/17 21:35:32;;;;;;;2.25;0.80;;;15.10;99.90;;;;;;5114497;28;20191;-79
2022/12/17 21:38:03;;;;;;;4.70;0.80;;;15.10;99.90;;;;;;5112637;27;20214;-79
2022/12/17 21:40:36;;;;;;;2.22;0.75;;;15.10;99.90;;;;;;5114968;28;20192;-78
2022/12/17 21:43:07;;;;;;;2.47;0.80;;;15.10;99.90;;;;;;5119320;27;20285;-79
2022/12/17 21:45:38;;;;;;;1.60;0.70;;;15.10;99.90;;;;;;5112122;27;20229;-79
2022/12/17 21:48:10;;;;;;;2.92;0.80;;;15.10;99.90;;;;;;5129491;27;20202;-79
2022/12/17 21:50:45;;;;;;;3.17;0.70;;;15.10;99.90;;;;;;5134323;27;20198;-77
2022/12/17 21:53:16;;;;;;;1.20;0.65;;;15.20;99.90;;;;;;5115414;28;20270;-78
2022/12/17 21:55:47;;;;;;;1.65;0.60;;;15.30;99.90;;;;;;5113067;27;20199;-79
2022/12/17 21:58:18;;;;;;;2.92;0.50;;;15.30;99.90;;;;;;5125921;27;20197;-79
2022/12/17 22:00:48;;;;;;;1.40;0.40;;;15.20;99.90;;;;;;5113527;27;20199;-78
2022/12/17 22:03:19;;;;;;;0.80;0.40;;;15.20;99.90;;;;;;5115325;27;20210;-78
2022/12/17 22:05:54;;;;;;;1.33;0.50;;;15.30;99.90;;;;;;5123393;27;20259;-78
2022/12/17 22:08:25;;;;;;;0.43;0.40;;;15.30;99.90;;;;;;5113366;27;20210;-78
2022/12/17 22:10:56;;;;;;;1.23;0.50;;;15.40;99.90;;;;;;5106979;27;20192;-78
2022/12/17 22:16:13;;;;;;;1.00;0.40;;;15.50;99.90;;;;;;5113302;27;20229;-78
2022/12/17 22:18:44;;;;;;;0.38;0.30;;;15.50;99.90;;;;;;5118032;27;20282;-77
2022/12/17 22:21:17;;;;;;;1.25;0.40;;;15.60;99.90;;;;;;5114200;27;20191;-79
2022/12/17 22:23:49;;;;;;;0.80;0.47;;;15.70;99.90;;;;;;5116898;27;20199;-82
2022/12/17 22:26:21;;;;;;;0.95;0.30;;;15.80;99.90;;;;;;5134951;27;20643;-79
2022/12/17 22:28:52;;;;;;;0.70;0.30;;;15.90;99.90;;;;;;5123291;27;20214;-83
2022/12/17 22:34:13;;;;;;;3.33;0.40;;;16.10;99.90;;;;;;5115592;27;20194;-80
2022/12/17 22:36:45;;;;;;;0.73;0.55;;;16.10;99.90;;;;;;5118058;27;20561;-79
2022/12/17 22:39:17;;;;;;;0.95;0.40;;;16.20;99.90;;;;;;5114253;28;20567;-81
2022/12/17 22:44:34;;;;;;;3.35;0.52;;;16.70;99.90;;;;;;5094698;28;20536;-87
2022/12/17 22:47:06;;;;;;;1.98;0.43;;;16.70;99.90;;;;;;5107868;28;20697;-80
2022/12/17 22:49:37;;;;;;;1.60;0.40;;;16.80;99.90;;;;;;5105545;28;20193;-82
2022/12/17 22:52:10;;;;;;;2.10;0.40;;;16.90;99.90;;;;;;5111704;28;20241;-81
2022/12/17 22:54:41;;;;;;;1.67;0.52;;;17.00;99.90;;;;;;5114170;28;20192;-79
2022/12/17 22:57:15;;;;;;;1.15;0.57;;;17.00;99.90;;;;;;5114704;28;20202;-77
2022/12/17 22:59:45;;;;;;;2.38;0.60;;;17.00;99.90;;;;;;5113588;28;20188;-79
2022/12/17 23:02:19;;;;;;;1.48;0.57;;;17.00;99.90;;;;;;5109876;28;20198;-87
2022/12/17 23:04:50;;;;;;;0.57;0.40;;;17.10;99.90;;;;;;5114051;28;20251;-84
2022/12/17 23:07:23;;;;;;;0.80;0.40;;;17.40;99.90;;;;;;5113646;28;20224;-75
2022/12/17 23:09:53;;;;;;;2.97;0.60;;;17.50;99.90;;;;;;5113696;28;20184;-77
2022/12/17 23:15:11;;;;;;;2.40;0.60;;;17.80;99.90;;;;;;5093623;28;20184;-78
2022/12/17 23:17:42;;;;;;;1.00;0.40;;;18.00;99.90;;;;;;5104281;28;20206;-79
2022/12/17 23:20:13;;;;;;;0.40;0.32;;;18.40;99.90;;;;;;5114254;28;20209;-76
2022/12/17 23:22:46;;;;;;;1.55;0.40;;;18.40;99.90;;;;;;5112131;28;20194;-76
2022/12/17 23:25:17;;;;;;;1.02;0.40;;;18.50;99.90;;;;;;5113388;28;20188;-76
2022/12/17 23:27:49;;;;;;;2.70;0.50;;;18.50;99.90;;;;;;5113312;28;20213;-75
2022/12/17 23:30:20;;;;;;;1.13;0.32;;;18.30;99.90;;;;;;5108036;28;20192;-77
2022/12/17 23:32:51;;;;;;;0.55;0.28;;;18.10;99.90;;;;;;5113360;28;20192;-75
2022/12/17 23:35:21;;;;;;;0.95;0.30;;;18.10;99.90;;;;;;5111745;28;20267;-80
2022/12/17 23:37:55;;;;;;;1.90;0.30;;;18.00;99.90;;;;;;5092799;28;20703;-85
2022/12/17 23:40:26;;;;;;;1.40;0.60;;;17.80;99.90;;;;;;5100661;28;20290;-79
2022/12/17 23:42:57;;;;;;;0.73;0.28;;;17.90;99.90;;;;;;5113672;28;20240;-78
2022/12/17 23:45:27;;;;;;;0.65;0.28;;;18.30;99.90;;;;;;5113295;28;20184;-77
2022/12/17 23:47:59;;;;;;;1.70;0.60;;;18.60;99.90;;;;;;5113239;28;20259;-80
2022/12/17 23:50:29;;;;;;;2.35;0.40;;;18.90;99.90;;;;;;5109232;28;20650;-75
2022/12/17 23:53:02;;;;;;;3.72;2.95;;;18.90;99.90;;;;;;5112849;28;20630;-77
2022/12/17 23:55:34;;;;;;;5.82;3.70;;;18.80;99.90;;;;;;5102302;28;20191;-76
2022/12/17 23:58:05;;;;;;;6.47;3.38;;;18.70;99.90;;;;;;5116729;28;20188;-75
